Bishopville, SC (29010)

2:15 PM EDT on August 29, 2016 (GMT -0400)
McBee,SC | | Change Station

Elev 210 ft 34.37 °N, 80.28 °W | Updated 2 minutes ago

Scattered Clouds
Scattered Clouds
88.8 °F
Feels Like 95 °F
N
4.0
Wind Variable Wind from NNE
Gusts 8.0 mph

Today
High -- | Low -- °F
--% Chance of Precip.
Yesterday
High -- | Low -- °F
Precip. -- in
Pressure 30.10 in
Visibility 10.0 miles
Clouds Scattered Clouds 3600 ft
Scattered Clouds 4700 ft
Scattered Clouds 5500 ft
Heat Index 95 °F
Dew Point 71 °F
Humidity 56%
Rainfall 0.00 in
Snow Depth Not available.
6:52 AM 7:50 PM
Waning Crescent, 7% visible
METAR KHVS 291755Z AUTO 03005KT 10SM SCT036 SCT047 SCT055 32/21 A3010 RMK AO2
Pressure 30.10 in
Visibility 10.0 miles
Clouds Scattered Clouds 3600 ft
Scattered Clouds 4700 ft
Scattered Clouds 5500 ft
Heat Index 95 °F
Dew Point 71 °F
Humidity 56%
Rainfall 0.00 in
Snow Depth Not available.
6:52 AM 7:50 PM
Waning Crescent, 7% visible
METAR KHVS 291755Z AUTO 03005KT 10SM SCT036 SCT047 SCT055 32/21 A3010 RMK AO2
Tropical Depression Nine was centered about 170 miles west-southwest of Key West, Florida, as of late Monday morning. The depression may struggle a bit in the southern Gulf of Mexico before finally making a Gulf Coast landfall later this week with soaking rain and gusty winds.

This latest system was designated a tropical depression Sunday after a Hurricane Hunter reconnaissance mission finally found a sufficiently organized low-pressure center with collocated shower and thunderstorm activity.

10-Day Weather Forecast

Almanac

Astronomy

Aug. 29, 2016 Rise Set
Actual Time
Civil Twilight
Nautical Twilight
Astronomical Twilight
Moon
Length of Visible Light
Length of Day
Tomorrow will be .
, % of the Moon is Illuminated

Today's Extremes

State Highs State Lows

Community

WunderPhotos

Upload Photos

1,935,685 photos uploaded!

WunderBlog® & News

Nearby

Air Quality

  Air Quality AQ Index Pollutant
Not available.

Snow Depth

Station Depth Elevation

Earthquake Activity

City Distance Mag. Time & Date
Minimum magnitude displayed is 2.5.

Coastal Water Temperatures

Place Temperature

Stations

Nearby Weather Stations

Station Location Temp. Windchill Dew Point Humidity Wind Precip. Elev Updated Type
                   

Watches & Warnings

There are currently no watches in effect.